Time;durP1;ratioP1;P1;durP2;ratioP2;P2;SDS_P1;SDS_P2;PMS_P1;PMS_P2;Temp;Humidity;BMP_temperature;BMP_pressure;BME280_temperature;BME280_humidity;BME280_pressure;Samples;Min_cycle;Max_cycle;Signal;HPM_P1;HPM_P2
2022/07/29 00:00:44;;;;;;;2.70;2.50;;;24.70;64.40;;;;;;4995273;28;20268;-72
2022/07/29 00:03:11;;;;;;;2.60;2.40;;;24.70;64.60;;;;;;5014208;28;20330;-72
2022/07/29 00:05:39;;;;;;;2.53;2.33;;;24.70;64.50;;;;;;5030041;28;20278;-71
2022/07/29 00:08:06;;;;;;;2.45;2.25;;;24.70;64.60;;;;;;4996878;28;20180;-72
2022/07/29 00:10:32;;;;;;;3.63;2.83;;;24.70;64.50;;;;;;5014091;28;20218;-72
2022/07/29 00:12:58;;;;;;;2.65;2.45;;;24.70;64.50;;;;;;5030264;28;20188;-72
2022/07/29 00:15:24;;;;;;;2.60;2.40;;;24.70;64.60;;;;;;5030123;28;20207;-73
2022/07/29 00:17:50;;;;;;;2.58;2.38;;;24.70;64.60;;;;;;5030124;28;20208;-72
2022/07/29 00:20:16;;;;;;;2.78;2.40;;;24.70;64.60;;;;;;5013358;28;20234;-72
2022/07/29 00:22:42;;;;;;;2.88;2.67;;;24.70;64.60;;;;;;5030187;28;20195;-72
2022/07/29 00:25:08;;;;;;;2.67;2.47;;;24.70;64.60;;;;;;5029109;28;20188;-72
2022/07/29 00:27:35;;;;;;;2.80;2.60;;;24.70;64.70;;;;;;5022410;28;20208;-72
2022/07/29 00:30:03;;;;;;;3.00;2.80;;;24.70;64.60;;;;;;5009611;28;20259;-72
2022/07/29 00:32:29;;;;;;;2.70;2.50;;;24.70;64.60;;;;;;5010288;28;20196;-72
2022/07/29 00:37:40;;;;;;;2.50;2.30;;;24.60;64.60;;;;;;5010354;28;20208;-73
2022/07/29 00:40:07;;;;;;;2.53;2.33;;;24.60;64.50;;;;;;5009415;28;20181;-73
2022/07/29 00:42:43;;;;;;;3.13;2.83;;;24.70;64.80;;;;;;4993787;28;20195;-72
2022/07/29 00:45:10;;;;;;;2.67;2.47;;;24.60;64.60;;;;;;5009885;28;20181;-72
2022/07/29 00:47:35;;;;;;;2.88;2.67;;;24.70;64.70;;;;;;5010101;28;20243;-73
2022/07/29 00:50:02;;;;;;;2.60;2.40;;;24.60;64.60;;;;;;5009477;28;20223;-73
2022/07/29 00:52:28;;;;;;;2.42;2.22;;;24.60;64.60;;;;;;5010248;28;20185;-72
2022/07/29 00:54:54;;;;;;;2.75;2.55;;;24.60;64.70;;;;;;5009420;28;20189;-73
2022/07/29 00:57:20;;;;;;;2.60;2.42;;;24.70;64.80;;;;;;5013105;28;20212;-72
2022/07/29 00:59:46;;;;;;;2.55;2.45;;;24.60;64.70;;;;;;5020592;28;20195;-72
2022/07/29 01:02:12;;;;;;;2.45;2.25;;;24.60;64.70;;;;;;4996709;28;20180;-72
2022/07/29 01:04:38;;;;;;;2.80;2.60;;;24.60;64.70;;;;;;5029377;28;20230;-72
2022/07/29 01:07:05;;;;;;;3.03;2.83;;;24.60;64.70;;;;;;5029433;28;20212;-72
2022/07/29 01:09:36;;;;;;;2.38;2.25;;;24.70;65.50;;;;;;5012129;28;20648;-72
2022/07/29 01:12:04;;;;;;;2.30;2.20;;;24.60;64.80;;;;;;4996760;28;20275;-72
2022/07/29 01:14:31;;;;;;;2.70;2.50;;;24.60;64.70;;;;;;5012724;28;20266;-72
2022/07/29 01:17:17;;;;;;;2.63;2.42;;;24.60;64.80;;;;;;5029065;28;20223;-72
2022/07/29 01:20:22;;;;;;;2.78;2.58;;;24.70;64.90;;;;;;5018012;28;20195;-72
2022/07/29 01:23:24;;;;;;;2.53;2.33;;;24.60;64.80;;;;;;5009559;28;20188;-72
2022/07/29 01:26:37;;;;;;;2.30;2.20;;;24.60;64.80;;;;;;4992907;28;20192;-73
2022/07/29 01:29:26;;;;;;;2.80;2.60;;;24.60;64.80;;;;;;5000680;28;20181;-72
2022/07/29 01:32:06;;;;;;;2.75;2.55;;;24.60;64.90;;;;;;4976798;28;20231;-72
2022/07/29 01:35:08;;;;;;;2.50;2.40;;;24.60;64.80;;;;;;4992949;28;20212;-72
2022/07/29 01:37:51;;;;;;;2.83;2.63;;;24.60;64.80;;;;;;4975026;28;20228;-72
2022/07/29 01:40:42;;;;;;;3.05;2.83;;;24.60;64.90;;;;;;4992370;28;20287;-71
2022/07/29 01:43:18;;;;;;;2.60;2.40;;;24.60;64.90;;;;;;4992764;28;20177;-72
2022/07/29 01:46:02;;;;;;;2.90;2.70;;;24.60;64.90;;;;;;4992331;28;20185;-72
2022/07/29 01:48:38;;;;;;;2.20;2.10;;;24.60;64.90;;;;;;4992529;28;20185;-71
2022/07/29 01:51:14;;;;;;;2.28;2.17;;;24.60;64.90;;;;;;5008977;28;20192;-73
2022/07/29 01:53:57;;;;;;;2.53;2.33;;;24.60;64.90;;;;;;4976165;28;20177;-72
2022/07/29 01:56:29;;;;;;;3.15;2.53;;;24.60;65.70;;;;;;5008676;28;20224;-72
2022/07/29 01:58:57;;;;;;;2.40;2.20;;;24.60;64.90;;;;;;4986043;28;20177;-72
2022/07/29 02:01:26;;;;;;;2.45;2.25;;;24.50;64.80;;;;;;5028571;28;20192;-72
2022/07/29 02:03:56;;;;;;;2.63;2.42;;;24.60;65.00;;;;;;5028327;28;20184;-72
2022/07/29 02:06:23;;;;;;;2.72;2.53;;;24.60;65.00;;;;;;5011852;28;20212;-72
2022/07/29 02:08:53;;;;;;;2.58;2.38;;;24.60;65.00;;;;;;5027689;28;20204;-72
2022/07/29 02:11:19;;;;;;;2.60;2.40;;;24.50;64.80;;;;;;5028287;28;20199;-72
2022/07/29 02:13:47;;;;;;;2.75;2.20;;;24.60;65.00;;;;;;5028011;28;20183;-72
2022/07/29 02:16:16;;;;;;;2.90;2.70;;;24.50;64.80;;;;;;4995300;28;20647;-72
2022/07/29 02:18:45;;;;;;;2.60;2.40;;;24.60;65.00;;;;;;4988725;28;20185;-72
2022/07/29 02:21:15;;;;;;;2.58;2.47;;;24.50;64.80;;;;;;4988863;28;20189;-72
2022/07/29 02:23:44;;;;;;;2.65;2.45;;;24.60;65.00;;;;;;4988680;28;20181;-72
2022/07/29 02:26:11;;;;;;;2.75;2.55;;;24.50;64.80;;;;;;4988674;28;20214;-72
2022/07/29 02:28:38;;;;;;;3.08;2.40;;;24.50;64.80;;;;;;5012727;28;20217;-72
2022/07/29 02:31:06;;;;;;;2.22;2.00;;;24.50;64.80;;;;;;5027720;28;20291;-72
2022/07/29 02:33:34;;;;;;;2.72;2.40;;;24.50;64.80;;;;;;5028212;28;20196;-72
2022/07/29 02:36:01;;;;;;;2.53;2.42;;;24.60;65.00;;;;;;5027604;28;20258;-72
2022/07/29 02:41:20;;;;;;;2.60;2.40;;;24.50;64.80;;;;;;5011399;28;20200;-73
2022/07/29 02:43:53;;;;;;;2.58;2.38;;;24.50;64.80;;;;;;4994844;28;20184;-72
2022/07/29 02:46:31;;;;;;;2.42;2.33;;;24.50;64.80;;;;;;5003251;28;20221;-72
2022/07/29 02:49:08;;;;;;;2.50;2.30;;;24.50;64.80;;;;;;5010612;28;20192;-72
2022/07/29 02:51:46;;;;;;;2.20;2.10;;;24.50;64.80;;;;;;4995475;28;20194;-72
2022/07/29 02:54:44;;;;;;;2.60;2.40;;;24.50;64.90;;;;;;5015195;28;20699;-72
2022/07/29 02:57:20;;;;;;;2.65;2.45;;;24.50;64.80;;;;;;5010395;28;20220;-72
2022/07/29 02:59:51;;;;;;;2.22;1.98;;;24.50;64.80;;;;;;5019314;28;20239;-73
2022/07/29 03:02:20;;;;;;;2.40;2.30;;;24.50;64.80;;;;;;5012474;28;20239;-72
2022/07/29 03:04:48;;;;;;;2.58;2.38;;;24.50;64.90;;;;;;4995171;28;20188;-72
2022/07/29 03:07:18;;;;;;;1.95;1.85;;;24.50;64.90;;;;;;5011694;28;20220;-72
2022/07/29 03:09:45;;;;;;;2.35;2.15;;;24.50;64.90;;;;;;4978574;28;20276;-73
2022/07/29 03:12:13;;;;;;;2.08;1.98;;;24.50;64.80;;;;;;4979386;28;20188;-72
2022/07/29 03:14:39;;;;;;;2.20;2.10;;;24.50;64.80;;;;;;4978940;28;20185;-72
2022/07/29 03:17:05;;;;;;;1.80;1.70;;;24.50;64.80;;;;;;5011755;28;20229;-72
2022/07/29 03:19:32;;;;;;;1.90;1.80;;;24.50;64.80;;;;;;4994788;28;20200;-72
2022/07/29 03:21:59;;;;;;;2.17;2.08;;;24.50;64.80;;;;;;5011509;28;20219;-72
2022/07/29 03:24:28;;;;;;;2.30;2.20;;;24.50;64.80;;;;;;5011605;28;20185;-72
2022/07/29 03:26:55;;;;;;;2.40;2.20;;;24.50;64.80;;;;;;5014047;28;20213;-72
2022/07/29 03:29:21;;;;;;;2.08;1.98;;;24.50;64.80;;;;;;5022015;28;20612;-72
2022/07/29 03:31:47;;;;;;;2.40;2.10;;;24.40;64.70;;;;;;5031135;28;20200;-72
2022/07/29 03:34:13;;;;;;;2.30;2.20;;;24.50;64.80;;;;;;5031101;28;20230;-73
2022/07/29 03:36:39;;;;;;;2.05;1.95;;;24.50;64.70;;;;;;5014676;28;20212;-72
2022/07/29 03:39:07;;;;;;;5.68;2.10;;;24.40;64.70;;;;;;5014058;28;20188;-72
2022/07/29 03:41:36;;;;;;;2.50;2.30;;;24.50;64.80;;;;;;5031249;28;20252;-72
2022/07/29 03:44:03;;;;;;;2.30;2.10;;;24.40;64.70;;;;;;5030633;28;20180;-72
2022/07/29 03:46:33;;;;;;;2.05;1.90;;;24.50;64.80;;;;;;5014266;28;20227;-72
2022/07/29 03:49:03;;;;;;;2.15;2.05;;;24.40;64.70;;;;;;5030289;28;20191;-72
2022/07/29 03:51:30;;;;;;;2.13;2.03;;;24.50;64.80;;;;;;5030921;28;20215;-72
2022/07/29 03:53:56;;;;;;;2.10;2.00;;;24.50;64.80;;;;;;4998097;28;20191;-73
2022/07/29 03:56:24;;;;;;;2.28;2.10;;;24.40;64.60;;;;;;5030312;28;20314;-72
2022/07/29 03:58:52;;;;;;;2.08;1.98;;;24.40;64.60;;;;;;4988461;28;20240;-71
2022/07/29 04:01:20;;;;;;;2.00;1.90;;;24.40;64.70;;;;;;4997583;28;20199;-72
2022/07/29 04:03:47;;;;;;;2.20;2.10;;;24.40;64.70;;;;;;5013746;28;20196;-72
2022/07/29 04:06:13;;;;;;;2.28;2.08;;;24.40;64.60;;;;;;5030201;28;20219;-72
2022/07/29 04:08:38;;;;;;;2.17;2.08;;;24.40;64.70;;;;;;5013543;28;20188;-72
2022/07/29 04:11:05;;;;;;;2.00;1.90;;;24.40;64.60;;;;;;5030631;28;20195;-73
2022/07/29 04:13:32;;;;;;;1.92;1.83;;;24.40;64.60;;;;;;5030500;28;20184;-72
2022/07/29 04:15:58;;;;;;;2.60;2.08;;;24.40;64.60;;;;;;5030308;28;20219;-72
2022/07/29 04:18:24;;;;;;;2.10;1.90;;;24.40;64.60;;;;;;5030164;28;20188;-72
2022/07/29 04:20:50;;;;;;;2.13;2.03;;;24.40;64.60;;;;;;5030485;28;20253;-73
2022/07/29 04:23:16;;;;;;;2.00;1.90;;;24.40;64.70;;;;;;5030167;28;20601;-72
2022/07/29 04:25:42;;;;;;;2.05;1.95;;;24.40;64.70;;;;;;4997400;28;20176;-72
2022/07/29 04:28:09;;;;;;;2.25;2.15;;;24.40;64.70;;;;;;5008521;28;20192;-73
2022/07/29 04:30:37;;;;;;;2.47;2.30;;;24.40;64.60;;;;;;5009243;28;20196;-72
2022/07/29 04:33:06;;;;;;;2.40;2.20;;;24.40;64.70;;;;;;5013609;28;20192;-72
2022/07/29 04:35:37;;;;;;;2.10;2.00;;;24.40;64.70;;;;;;5030196;28;20204;-72
2022/07/29 04:38:05;;;;;;;2.05;1.92;;;24.40;64.70;;;;;;5023451;28;20245;-73
2022/07/29 04:40:32;;;;;;;1.75;1.65;;;24.40;64.70;;;;;;5007471;28;20255;-73
2022/07/29 04:43:02;;;;;;;2.40;2.20;;;24.40;64.70;;;;;;4993795;28;20593;-73
2022/07/29 04:45:28;;;;;;;2.33;2.10;;;24.40;64.70;;;;;;4993605;28;20185;-72
2022/07/29 04:47:55;;;;;;;1.80;1.70;;;24.40;64.70;;;;;;4993716;28;20212;-72
2022/07/29 04:50:22;;;;;;;2.00;1.80;;;24.40;64.80;;;;;;4993306;28;20185;-73
2022/07/29 04:52:48;;;;;;;2.00;1.90;;;24.40;64.70;;;;;;4993963;28;20189;-73
2022/07/29 04:55:14;;;;;;;2.53;2.33;;;24.40;65.60;;;;;;4993476;28;20283;-72
2022/07/29 04:57:40;;;;;;;1.90;1.77;;;24.40;64.80;;;;;;5001479;28;20261;-72
2022/07/29 05:00:08;;;;;;;2.13;1.92;;;24.40;64.80;;;;;;5009215;28;20248;-72
2022/07/29 05:02:34;;;;;;;3.15;1.95;;;24.40;64.80;;;;;;5009769;28;20770;-72
2022/07/29 05:04:59;;;;;;;2.00;1.85;;;24.40;64.80;;;;;;4993175;28;20184;-72
2022/07/29 05:07:25;;;;;;;1.70;1.60;;;24.40;64.90;;;;;;4993362;28;20205;-72
2022/07/29 05:09:52;;;;;;;2.75;1.80;;;24.40;64.90;;;;;;4991721;28;20197;-72
2022/07/29 05:12:18;;;;;;;2.25;2.05;;;24.40;64.90;;;;;;5009482;28;20193;-72
2022/07/29 05:14:44;;;;;;;2.67;2.10;;;24.40;65.70;;;;;;5009411;28;20181;-71
2022/07/29 05:17:09;;;;;;;2.05;1.95;;;24.40;64.90;;;;;;5009498;28;20220;-72
2022/07/29 05:19:35;;;;;;;1.95;1.80;;;24.40;64.90;;;;;;4992559;28;20188;-72
2022/07/29 05:22:01;;;;;;;1.80;1.70;;;24.40;65.00;;;;;;4993142;28;20590;-72
2022/07/29 05:24:27;;;;;;;2.17;1.95;;;24.40;65.00;;;;;;5009160;28;20292;-72
2022/07/29 05:26:53;;;;;;;2.20;2.10;;;24.40;65.00;;;;;;4993109;28;20274;-72
2022/07/29 05:29:18;;;;;;;2.03;1.73;;;24.40;65.00;;;;;;5000368;28;20212;-72
2022/07/29 05:31:44;;;;;;;1.80;1.70;;;24.40;65.10;;;;;;4993188;28;20582;-72
2022/07/29 05:34:10;;;;;;;1.95;1.85;;;24.40;65.00;;;;;;4992863;28;20188;-72
2022/07/29 05:36:36;;;;;;;2.00;1.90;;;24.40;65.10;;;;;;4976477;28;20276;-72
2022/07/29 05:39:02;;;;;;;2.17;1.98;;;24.40;65.10;;;;;;4992432;28;20188;-72
2022/07/29 05:41:31;;;;;;;2.00;1.90;;;24.40;65.10;;;;;;4992918;28;20187;-73
2022/07/29 05:43:58;;;;;;;2.10;1.90;;;24.40;65.20;;;;;;4992618;28;20180;-73
2022/07/29 05:46:24;;;;;;;1.80;1.70;;;24.30;65.00;;;;;;5008728;28;20209;-72
2022/07/29 05:48:49;;;;;;;1.85;1.75;;;24.40;65.20;;;;;;5008739;28;20185;-71
2022/07/29 05:51:15;;;;;;;1.73;1.63;;;24.40;65.20;;;;;;5008970;28;20216;-72
2022/07/29 05:53:41;;;;;;;1.88;1.77;;;24.40;65.20;;;;;;5008844;28;20188;-72
2022/07/29 05:56:07;;;;;;;2.00;1.90;;;24.40;65.20;;;;;;5008003;28;20287;-73
2022/07/29 05:58:33;;;;;;;2.38;1.58;;;24.30;65.10;;;;;;5016703;28;20579;-72
2022/07/29 06:01:00;;;;;;;2.42;1.75;;;24.40;65.30;;;;;;4995062;28;20187;-72
2022/07/29 06:03:26;;;;;;;3.83;2.00;;;24.40;65.30;;;;;;4995832;28;20180;-73
2022/07/29 06:05:52;;;;;;;1.77;1.67;;;24.40;65.30;;;;;;5028066;28;20211;-72
2022/07/29 06:08:18;;;;;;;1.88;1.77;;;24.30;65.40;;;;;;5028606;28;20190;-73
2022/07/29 06:10:45;;;;;;;2.00;1.90;;;24.40;65.40;;;;;;5027642;28;20194;-72
2022/07/29 06:13:12;;;;;;;1.83;1.73;;;24.30;65.30;;;;;;5028222;28;20180;-72
2022/07/29 06:15:37;;;;;;;1.90;1.80;;;24.40;65.50;;;;;;5011290;28;20613;-72
2022/07/29 06:18:03;;;;;;;2.35;1.83;;;24.30;65.50;;;;;;5012610;28;20189;-72
2022/07/29 06:20:31;;;;;;;2.10;2.00;;;24.30;65.40;;;;;;5007956;28;20267;-72
2022/07/29 06:22:57;;;;;;;1.88;1.77;;;24.30;65.40;;;;;;5007841;28;20219;-71
2022/07/29 06:25:23;;;;;;;1.95;1.75;;;24.30;65.50;;;;;;5008561;28;20173;-72
2022/07/29 06:27:49;;;;;;;2.47;2.30;;;24.30;65.40;;;;;;5015949;28;20211;-73
2022/07/29 06:30:14;;;;;;;2.10;2.00;;;24.40;65.60;;;;;;5004457;28;20278;-73
2022/07/29 06:32:40;;;;;;;2.50;1.80;;;24.40;65.60;;;;;;5011436;28;20196;-73
2022/07/29 06:35:07;;;;;;;1.85;1.67;;;24.40;65.60;;;;;;5011380;28;20214;-73
2022/07/29 06:37:32;;;;;;;2.40;2.20;;;24.40;65.60;;;;;;4988371;28;20212;-73
2022/07/29 06:42:44;;;;;;;2.00;1.90;;;24.40;65.60;;;;;;5007951;28;20586;-73
2022/07/29 06:45:11;;;;;;;1.83;1.73;;;24.40;65.60;;;;;;5007950;28;20189;-72
2022/07/29 06:47:37;;;;;;;1.90;1.80;;;24.40;65.60;;;;;;4991763;28;20205;-73
2022/07/29 06:50:04;;;;;;;1.90;1.80;;;24.40;65.60;;;;;;5007877;28;20185;-73
2022/07/29 06:52:30;;;;;;;1.75;1.65;;;24.40;65.60;;;;;;5008338;28;20188;-73
2022/07/29 06:54:56;;;;;;;1.92;1.50;;;24.40;65.60;;;;;;4991504;28;20189;-74
2022/07/29 06:57:22;;;;;;;2.00;1.55;;;24.40;65.60;;;;;;5008238;28;20243;-72
2022/07/29 06:59:48;;;;;;;1.80;1.70;;;24.40;65.60;;;;;;5015539;28;20189;-72
2022/07/29 07:02:14;;;;;;;1.90;1.80;;;24.40;65.60;;;;;;5007861;28;20185;-73
2022/07/29 07:04:40;;;;;;;1.70;1.60;;;24.40;65.60;;;;;;4991555;28;20223;-73
2022/07/29 07:07:06;;;;;;;2.10;1.90;;;24.40;65.60;;;;;;4991331;28;20244;-73
2022/07/29 07:09:32;;;;;;;1.90;1.80;;;24.40;65.60;;;;;;5006690;28;20193;-73
2022/07/29 07:11:58;;;;;;;2.20;1.92;;;24.40;65.60;;;;;;4991514;28;20200;-73
2022/07/29 07:14:26;;;;;;;1.70;1.60;;;24.40;65.60;;;;;;4991586;28;20709;-73
2022/07/29 07:16:52;;;;;;;2.08;1.98;;;24.50;65.80;;;;;;4991402;28;20219;-73
2022/07/29 07:19:19;;;;;;;1.95;1.80;;;24.50;65.70;;;;;;4989838;28;20185;-72
2022/07/29 07:21:44;;;;;;;1.80;1.70;;;24.50;65.70;;;;;;4989191;28;20196;-72
2022/07/29 07:24:10;;;;;;;1.98;1.88;;;24.50;65.70;;;;;;4991462;28;20185;-72
2022/07/29 07:26:36;;;;;;;1.98;1.77;;;24.50;65.70;;;;;;4991213;28;20275;-72
2022/07/29 07:29:02;;;;;;;1.80;1.70;;;24.50;65.80;;;;;;5002173;28;20195;-72
2022/07/29 07:31:28;;;;;;;2.15;2.00;;;24.50;65.90;;;;;;5010868;28;20199;-72
2022/07/29 07:33:53;;;;;;;2.15;1.95;;;24.50;65.90;;;;;;5013376;28;20188;-71
2022/07/29 07:36:19;;;;;;;2.08;1.90;;;24.50;65.90;;;;;;4975686;28;20268;-72
2022/07/29 07:38:45;;;;;;;1.90;1.80;;;24.50;66.10;;;;;;4974853;28;20276;-73
2022/07/29 07:41:11;;;;;;;1.90;1.80;;;24.50;66.20;;;;;;4975648;28;20562;-71
2022/07/29 07:43:37;;;;;;;1.90;1.80;;;24.50;66.10;;;;;;5007119;28;20576;-72
2022/07/29 07:46:03;;;;;;;1.73;1.63;;;24.50;65.90;;;;;;5027072;28;20577;-72
2022/07/29 07:48:29;;;;;;;2.40;2.10;;;24.50;65.80;;;;;;5027655;28;20220;-73
2022/07/29 07:50:55;;;;;;;1.98;1.88;;;24.50;66.70;;;;;;5026945;28;20208;-72
2022/07/29 07:53:21;;;;;;;2.10;2.00;;;24.60;66.00;;;;;;4994620;28;20193;-72
2022/07/29 07:55:47;;;;;;;2.13;1.92;;;24.60;66.40;;;;;;5027310;28;20215;-72
2022/07/29 07:58:13;;;;;;;2.30;2.10;;;24.50;67.10;;;;;;5002725;28;20197;-72
2022/07/29 08:00:39;;;;;;;2.10;2.00;;;24.60;66.40;;;;;;5027348;28;20180;-71
2022/07/29 08:03:05;;;;;;;3.25;2.08;;;24.60;66.40;;;;;;5030575;28;20659;-72
2022/07/29 08:05:31;;;;;;;2.13;1.92;;;24.60;66.40;;;;;;4997296;28;20188;-71
2022/07/29 08:07:57;;;;;;;2.08;1.98;;;24.60;67.30;;;;;;4997772;28;20200;-72
2022/07/29 08:13:08;;;;;;;2.50;2.30;;;24.60;66.70;;;;;;5014391;28;20192;-72
2022/07/29 08:15:35;;;;;;;2.33;1.95;;;24.60;66.70;;;;;;5030436;28;20211;-71
2022/07/29 08:18:01;;;;;;;2.28;2.17;;;24.60;66.80;;;;;;5030222;28;20199;-72
2022/07/29 08:20:27;;;;;;;2.20;2.10;;;24.60;66.70;;;;;;5029813;28;20184;-73
2022/07/29 08:22:53;;;;;;;2.33;2.13;;;24.60;66.70;;;;;;5030526;28;20219;-73
2022/07/29 08:25:20;;;;;;;2.20;2.00;;;24.60;66.80;;;;;;5030041;28;20180;-72
2022/07/29 08:27:47;;;;;;;2.15;2.00;;;24.60;66.90;;;;;;5021236;28;20676;-72
2022/07/29 08:30:13;;;;;;;2.20;2.10;;;24.60;66.90;;;;;;5016049;28;20668;-72
2022/07/29 08:32:39;;;;;;;2.15;2.00;;;24.60;66.90;;;;;;5010592;28;20188;-72
2022/07/29 08:35:05;;;;;;;2.60;2.40;;;24.60;67.20;;;;;;5010269;28;20192;-72
2022/07/29 08:37:31;;;;;;;2.38;2.25;;;24.60;66.90;;;;;;5006982;28;20208;-72
2022/07/29 08:39:57;;;;;;;2.15;2.05;;;24.60;67.00;;;;;;4973918;28;20181;-72
2022/07/29 08:42:23;;;;;;;2.20;2.10;;;24.60;67.00;;;;;;4974604;28;20186;-72
2022/07/29 08:44:50;;;;;;;2.40;2.20;;;24.60;67.00;;;;;;4973804;28;20186;-72
2022/07/29 08:47:17;;;;;;;2.33;2.13;;;24.70;67.00;;;;;;4974117;28;20209;-73
2022/07/29 08:49:44;;;;;;;2.50;2.30;;;24.70;67.00;;;;;;4973675;28;20208;-73
2022/07/29 08:52:11;;;;;;;2.22;2.05;;;24.70;66.90;;;;;;4982917;28;20192;-71
2022/07/29 08:54:43;;;;;;;3.45;2.35;;;24.70;66.90;;;;;;5026383;28;20199;-72
2022/07/29 08:57:13;;;;;;;2.25;2.13;;;24.70;67.00;;;;;;5029132;28;20220;-73
2022/07/29 08:59:42;;;;;;;2.50;2.30;;;24.80;67.10;;;;;;5020842;28;20176;-72
2022/07/29 09:02:20;;;;;;;2.03;1.92;;;24.70;66.70;;;;;;4996526;28;20184;-73
2022/07/29 09:04:47;;;;;;;2.50;2.10;;;24.70;66.70;;;;;;5029203;28;20188;-73
2022/07/29 09:07:18;;;;;;;3.20;2.42;;;24.70;66.70;;;;;;4996425;28;20303;-72
2022/07/29 09:09:44;;;;;;;2.65;2.25;;;24.70;66.80;;;;;;5028814;28;20215;-72
2022/07/29 09:12:12;;;;;;;2.58;2.05;;;24.80;66.80;;;;;;5029305;28;20180;-72
2022/07/29 09:14:40;;;;;;;2.50;2.30;;;24.80;66.80;;;;;;5029464;28;20271;-72
2022/07/29 09:17:07;;;;;;;2.38;2.17;;;24.70;66.70;;;;;;5029180;28;20311;-72
2022/07/29 09:19:36;;;;;;;2.83;2.30;;;24.70;66.70;;;;;;5015924;28;20181;-73
2022/07/29 09:22:06;;;;;;;2.28;2.13;;;24.70;66.70;;;;;;4993192;28;20216;-72
2022/07/29 09:24:34;;;;;;;2.38;2.17;;;24.70;66.60;;;;;;4993372;28;20189;-72
2022/07/29 09:27:01;;;;;;;2.30;2.20;;;24.80;66.60;;;;;;4996048;28;20212;-73
2022/07/29 09:29:27;;;;;;;2.17;2.00;;;24.70;66.50;;;;;;4987409;28;20191;-73
2022/07/29 09:31:55;;;;;;;2.50;2.30;;;24.70;66.40;;;;;;4996115;28;20184;-72
2022/07/29 09:34:31;;;;;;;2.50;2.30;;;24.80;66.40;;;;;;5029040;28;20185;-72
2022/07/29 09:36:57;;;;;;;2.53;2.33;;;24.80;66.30;;;;;;5028938;28;20226;-72
2022/07/29 09:39:46;;;;;;;2.38;2.17;;;24.80;67.00;;;;;;5011665;28;20180;-72
2022/07/29 09:42:13;;;;;;;2.42;2.22;;;24.80;66.20;;;;;;5028556;28;20647;-72
2022/07/29 09:44:48;;;;;;;2.80;2.22;;;24.80;66.20;;;;;;5028801;28;20176;-72
2022/07/29 09:47:17;;;;;;;3.55;2.17;;;24.80;66.80;;;;;;5028414;28;20239;-72
2022/07/29 09:49:59;;;;;;;2.80;2.50;;;24.90;66.30;;;;;;5011813;28;20180;-73
2022/07/29 09:52:30;;;;;;;3.05;2.60;;;24.90;66.10;;;;;;5028709;28;20257;-72
2022/07/29 09:55:09;;;;;;;2.55;2.35;;;24.90;65.60;;;;;;5028514;28;20191;-73
2022/07/29 09:57:36;;;;;;;2.97;2.75;;;24.90;66.00;;;;;;4987284;28;20224;-72
2022/07/29 10:00:08;;;;;;;3.13;2.92;;;24.90;65.30;;;;;;4983666;28;20270;-72
2022/07/29 10:02:43;;;;;;;4.88;3.20;;;24.80;65.00;;;;;;4993237;28;20177;-72
2022/07/29 10:05:24;;;;;;;3.88;2.78;;;24.80;65.50;;;;;;4976303;28;20189;-73
2022/07/29 10:07:55;;;;;;;3.45;3.15;;;24.80;65.50;;;;;;5008766;28;20231;-72
2022/07/29 10:10:30;;;;;;;3.00;2.80;;;24.80;65.70;;;;;;5007873;28;20248;-72
2022/07/29 10:12:59;;;;;;;4.70;3.70;;;24.90;65.80;;;;;;5008722;28;20715;-72
2022/07/29 10:15:29;;;;;;;3.25;2.97;;;24.90;65.80;;;;;;5008117;28;20193;-72
2022/07/29 10:17:56;;;;;;;4.80;3.17;;;24.90;65.80;;;;;;4976147;28;20267;-74
2022/07/29 10:20:24;;;;;;;3.17;2.67;;;24.80;67.20;;;;;;5007935;28;20212;-73
2022/07/29 10:22:52;;;;;;;6.68;3.50;;;24.90;66.20;;;;;;5008339;28;20197;-72
2022/07/29 10:25:18;;;;;;;5.03;3.70;;;24.90;68.40;;;;;;4991939;28;20185;-73
2022/07/29 10:27:46;;;;;;;8.25;3.60;;;24.90;70.50;;;;;;5000081;28;20204;-72
2022/07/29 10:30:15;;;;;;;3.72;3.35;;;24.80;70.10;;;;;;5010011;28;20188;-70
2022/07/29 10:33:33;;;;;;;3.28;3.03;;;24.80;71.30;;;;;;5008376;28;20185;-72
2022/07/29 10:36:31;;;;;;;3.90;3.47;;;24.80;71.80;;;;;;4975254;28;20696;-71
2022/07/29 10:39:53;;;;;;;3.83;3.45;;;24.80;73.30;;;;;;4991950;28;20301;-72
2022/07/29 10:42:25;;;;;;;4.35;3.95;;;24.70;72.40;;;;;;4991611;28;20673;-72
2022/07/29 10:44:53;;;;;;;4.55;3.85;;;24.70;73.60;;;;;;5008019;28;20268;-72
2022/07/29 10:47:25;;;;;;;4.70;3.47;;;24.70;72.80;;;;;;5007880;28;20197;-73
2022/07/29 10:50:05;;;;;;;3.92;3.63;;;24.80;71.40;;;;;;5007712;28;20185;-73
2022/07/29 10:52:49;;;;;;;3.70;3.38;;;24.80;72.50;;;;;;5008381;28;20184;-72
2022/07/29 10:55:39;;;;;;;3.83;3.40;;;24.80;73.70;;;;;;4991150;28;20185;-72
2022/07/29 10:58:14;;;;;;;4.03;3.63;;;24.80;74.20;;;;;;5016038;28;20202;-72
2022/07/29 11:00:41;;;;;;;4.15;3.80;;;24.70;75.10;;;;;;5008037;28;20192;-72
2022/07/29 11:03:07;;;;;;;4.93;4.18;;;24.60;74.90;;;;;;5011224;28;20180;-72
2022/07/29 11:05:56;;;;;;;6.50;3.60;;;24.50;76.00;;;;;;5027674;28;20180;-72
2022/07/29 11:08:25;;;;;;;6.18;3.78;;;24.40;76.20;;;;;;5012513;28;20176;-72
2022/07/29 11:11:13;;;;;;;4.40;4.00;;;24.40;76.50;;;;;;5030790;28;20214;-70
2022/07/29 11:13:52;;;;;;;7.28;4.03;;;24.50;76.80;;;;;;5014974;28;20191;-73
2022/07/29 11:16:47;;;;;;;4.30;3.90;;;24.40;76.70;;;;;;5014233;28;20253;-74
2022/07/29 11:19:21;;;;;;;3.88;3.47;;;24.30;77.40;;;;;;4981293;28;20225;-74
2022/07/29 11:22:04;;;;;;;4.50;4.10;;;24.30;77.50;;;;;;4996375;28;20190;-74
2022/07/29 11:25:04;;;;;;;3.88;3.47;;;24.20;78.90;;;;;;4996391;28;20280;-72
2022/07/29 11:27:39;;;;;;;4.20;3.67;;;24.10;80.00;;;;;;4988876;28;20220;-74
2022/07/29 11:30:06;;;;;;;4.38;3.92;;;24.30;79.20;;;;;;4991671;28;20192;-73
2022/07/29 11:32:44;;;;;;;3.92;3.63;;;24.40;78.60;;;;;;5037753;28;20187;-74
2022/07/29 11:35:11;;;;;;;4.03;3.55;;;24.40;79.00;;;;;;5038279;28;20180;-73
2022/07/29 11:37:37;;;;;;;3.75;3.28;;;24.50;79.20;;;;;;5003030;28;20280;-73
2022/07/29 11:40:06;;;;;;;3.85;3.53;;;24.60;77.70;;;;;;5002309;28;20185;-73
2022/07/29 11:42:35;;;;;;;5.68;3.70;;;24.70;76.60;;;;;;4991732;28;20188;-74
2022/07/29 11:45:13;;;;;;;4.78;3.40;;;24.80;76.10;;;;;;4992436;28;20189;-74
2022/07/29 11:47:57;;;;;;;5.40;3.30;;;24.90;75.90;;;;;;4992248;28;20270;-74
2022/07/29 11:50:36;;;;;;;3.40;3.10;;;25.00;75.90;;;;;;5003690;28;20212;-73
2022/07/29 11:53:13;;;;;;;3.40;3.10;;;25.00;75.70;;;;;;5004667;28;20560;-73
2022/07/29 11:55:41;;;;;;;3.78;3.47;;;25.10;75.90;;;;;;5004309;28;20200;-72
2022/07/29 11:58:07;;;;;;;4.28;3.88;;;25.00;76.60;;;;;;5010802;28;20239;-73
2022/07/29 12:00:39;;;;;;;4.25;3.85;;;25.00;74.90;;;;;;5032793;28;20180;-73
2022/07/29 12:03:08;;;;;;;4.28;3.88;;;25.00;75.10;;;;;;5019420;28;20188;-74
2022/07/29 12:05:44;;;;;;;4.18;3.78;;;25.00;74.70;;;;;;5026549;28;20177;-73
2022/07/29 12:08:22;;;;;;;4.43;3.53;;;25.00;74.60;;;;;;5008222;28;20191;-75
2022/07/29 12:10:50;;;;;;;4.65;4.13;;;25.00;74.30;;;;;;5021931;28;20227;-73
2022/07/29 12:13:20;;;;;;;4.25;3.70;;;25.00;72.90;;;;;;4990942;28;20233;-74
2022/07/29 12:15:58;;;;;;;4.40;3.90;;;25.00;73.00;;;;;;5032733;28;20294;-75
2022/07/29 12:18:24;;;;;;;3.92;3.63;;;25.00;70.50;;;;;;5007443;28;20180;-73
2022/07/29 12:21:04;;;;;;;3.65;3.35;;;25.00;71.10;;;;;;5034908;28;20568;-74
2022/07/29 12:23:34;;;;;;;4.00;3.70;;;25.00;71.50;;;;;;5032523;28;20251;-74
2022/07/29 12:26:03;;;;;;;3.65;3.42;;;24.90;69.40;;;;;;5039748;28;20200;-74
2022/07/29 12:28:29;;;;;;;3.50;3.20;;;24.80;67.80;;;;;;5015722;28;20214;-74
2022/07/29 12:30:55;;;;;;;4.43;3.67;;;24.90;69.70;;;;;;4997439;28;20195;-74
2022/07/29 12:33:29;;;;;;;4.63;3.70;;;24.90;69.80;;;;;;5022153;28;20185;-74
2022/07/29 12:36:01;;;;;;;6.28;3.47;;;24.90;69.20;;;;;;5015584;28;20201;-74
2022/07/29 12:38:30;;;;;;;5.47;3.38;;;25.00;68.90;;;;;;5016854;28;20192;-74
2022/07/29 12:40:57;;;;;;;3.50;3.20;;;25.00;68.90;;;;;;5028480;28;20279;-74
2022/07/29 12:43:24;;;;;;;4.03;3.60;;;25.00;68.90;;;;;;5036979;28;20211;-74
2022/07/29 12:45:53;;;;;;;4.07;3.67;;;25.00;69.50;;;;;;5026055;28;20199;-74
2022/07/29 12:48:38;;;;;;;3.90;3.50;;;25.00;69.30;;;;;;5031477;28;20208;-75
2022/07/29 12:51:07;;;;;;;3.35;3.03;;;25.00;69.40;;;;;;4996291;28;20193;-74
2022/07/29 12:53:35;;;;;;;5.07;3.45;;;25.00;69.40;;;;;;5016229;28;20204;-74
2022/07/29 12:56:03;;;;;;;3.42;3.22;;;25.10;69.60;;;;;;5000379;28;20227;-75
2022/07/29 12:58:38;;;;;;;3.50;3.20;;;25.10;70.00;;;;;;5012757;28;20193;-74
2022/07/29 13:01:14;;;;;;;3.47;3.08;;;25.10;70.10;;;;;;5018684;28;20187;-74
2022/07/29 13:03:43;;;;;;;4.68;3.30;;;25.10;70.20;;;;;;5001499;28;20212;-74
2022/07/29 13:06:37;;;;;;;3.83;3.13;;;25.10;70.20;;;;;;5028945;28;20765;-74
2022/07/29 13:09:23;;;;;;;3.00;2.80;;;25.10;70.80;;;;;;5019824;28;20195;-74
2022/07/29 13:11:52;;;;;;;2.90;2.70;;;24.90;71.00;;;;;;5017490;28;20632;-75
2022/07/29 13:14:37;;;;;;;3.00;2.80;;;24.90;71.70;;;;;;5030108;28;20242;-74